sensor_id;sensor_type;location;lat;lon;timestamp;P1;durP1;ratioP1;P2;durP2;ratioP2
51238;SDS011;38154;47.548;18.828;2022-07-29T00:00:04;6.40;;;2.87;;
51238;SDS011;38154;47.548;18.828;2022-07-29T00:02:32;4.78;;;3.50;;
51238;SDS011;38154;47.548;18.828;2022-07-29T00:04:58;4.90;;;2.72;;
51238;SDS011;38154;47.548;18.828;2022-07-29T00:07:24;4.35;;;2.75;;
51238;SDS011;38154;47.548;18.828;2022-07-29T00:09:50;7.97;;;2.80;;
51238;SDS011;38154;47.548;18.828;2022-07-29T00:12:16;4.87;;;2.80;;
51238;SDS011;38154;47.548;18.828;2022-07-29T00:17:08;4.87;;;2.53;;
51238;SDS011;38154;47.548;18.828;2022-07-29T00:19:34;8.90;;;3.12;;
51238;SDS011;38154;47.548;18.828;2022-07-29T00:22:00;5.57;;;3.20;;
51238;SDS011;38154;47.548;18.828;2022-07-29T00:24:26;6.15;;;2.95;;
51238;SDS011;38154;47.548;18.828;2022-07-29T00:26:52;3.72;;;3.30;;
51238;SDS011;38154;47.548;18.828;2022-07-29T00:29:18;3.58;;;2.97;;
51238;SDS011;38154;47.548;18.828;2022-07-29T00:31:44;5.62;;;2.87;;
51238;SDS011;38154;47.548;18.828;2022-07-29T00:36:56;7.57;;;3.47;;
51238;SDS011;38154;47.548;18.828;2022-07-29T00:39:22;19.25;;;3.50;;
51238;SDS011;38154;47.548;18.828;2022-07-29T00:41:49;4.15;;;2.97;;
51238;SDS011;38154;47.548;18.828;2022-07-29T00:46:41;5.30;;;3.12;;
51238;SDS011;38154;47.548;18.828;2022-07-29T00:49:06;9.00;;;3.20;;
51238;SDS011;38154;47.548;18.828;2022-07-29T00:51:34;17.73;;;3.70;;
51238;SDS011;38154;47.548;18.828;2022-07-29T00:54:02;5.75;;;4.00;;
51238;SDS011;38154;47.548;18.828;2022-07-29T00:56:29;4.30;;;3.10;;
51238;SDS011;38154;47.548;18.828;2022-07-29T00:58:56;5.30;;;3.55;;
51238;SDS011;38154;47.548;18.828;2022-07-29T01:01:23;4.62;;;3.10;;
51238;SDS011;38154;47.548;18.828;2022-07-29T01:03:49;9.02;;;3.92;;
51238;SDS011;38154;47.548;18.828;2022-07-29T01:06:16;5.07;;;3.30;;
51238;SDS011;38154;47.548;18.828;2022-07-29T01:08:44;10.73;;;3.62;;
51238;SDS011;38154;47.548;18.828;2022-07-29T01:11:11;6.53;;;3.25;;
51238;SDS011;38154;47.548;18.828;2022-07-29T01:13:38;5.78;;;3.37;;
51238;SDS011;38154;47.548;18.828;2022-07-29T01:16:08;4.90;;;3.58;;
51238;SDS011;38154;47.548;18.828;2022-07-29T01:18:44;8.57;;;3.45;;
51238;SDS011;38154;47.548;18.828;2022-07-29T01:29:58;5.60;;;3.92;;
51238;SDS011;38154;47.548;18.828;2022-07-29T01:32:31;6.47;;;3.95;;
51238;SDS011;38154;47.548;18.828;2022-07-29T01:37:52;5.00;;;3.37;;
51238;SDS011;38154;47.548;18.828;2022-07-29T01:40:31;6.22;;;3.97;;
51238;SDS011;38154;47.548;18.828;2022-07-29T01:43:03;7.22;;;4.28;;
51238;SDS011;38154;47.548;18.828;2022-07-29T01:45:48;5.30;;;3.60;;
51238;SDS011;38154;47.548;18.828;2022-07-29T01:48:19;10.38;;;4.40;;
51238;SDS011;38154;47.548;18.828;2022-07-29T01:50:49;4.10;;;3.42;;
51238;SDS011;38154;47.548;18.828;2022-07-29T01:53:35;7.65;;;4.65;;
51238;SDS011;38154;47.548;18.828;2022-07-29T01:56:08;4.80;;;3.95;;
51238;SDS011;38154;47.548;18.828;2022-07-29T01:58:35;8.35;;;4.25;;
51238;SDS011;38154;47.548;18.828;2022-07-29T02:01:05;6.30;;;4.20;;
51238;SDS011;38154;47.548;18.828;2022-07-29T02:03:35;6.85;;;4.78;;
51238;SDS011;38154;47.548;18.828;2022-07-29T02:06:03;5.95;;;4.53;;
51238;SDS011;38154;47.548;18.828;2022-07-29T02:08:32;9.05;;;4.30;;
51238;SDS011;38154;47.548;18.828;2022-07-29T02:13:26;7.53;;;4.65;;
51238;SDS011;38154;47.548;18.828;2022-07-29T02:15:54;8.95;;;4.60;;
51238;SDS011;38154;47.548;18.828;2022-07-29T02:18:22;6.60;;;4.40;;
51238;SDS011;38154;47.548;18.828;2022-07-29T02:20:52;10.13;;;4.40;;
51238;SDS011;38154;47.548;18.828;2022-07-29T02:23:22;6.65;;;4.60;;
51238;SDS011;38154;47.548;18.828;2022-07-29T02:25:49;6.60;;;5.20;;
51238;SDS011;38154;47.548;18.828;2022-07-29T02:28:17;8.10;;;4.22;;
51238;SDS011;38154;47.548;18.828;2022-07-29T02:30:45;7.00;;;4.45;;
51238;SDS011;38154;47.548;18.828;2022-07-29T02:33:13;5.82;;;4.50;;
51238;SDS011;38154;47.548;18.828;2022-07-29T02:35:41;12.60;;;4.45;;
51238;SDS011;38154;47.548;18.828;2022-07-29T02:38:12;5.32;;;4.25;;
51238;SDS011;38154;47.548;18.828;2022-07-29T02:40:58;12.27;;;4.10;;
51238;SDS011;38154;47.548;18.828;2022-07-29T02:43:27;6.53;;;4.28;;
51238;SDS011;38154;47.548;18.828;2022-07-29T02:45:55;5.12;;;4.37;;
51238;SDS011;38154;47.548;18.828;2022-07-29T02:50:55;5.18;;;4.28;;
51238;SDS011;38154;47.548;18.828;2022-07-29T02:53:30;8.18;;;4.62;;
51238;SDS011;38154;47.548;18.828;2022-07-29T02:55:59;5.75;;;4.03;;
51238;SDS011;38154;47.548;18.828;2022-07-29T02:58:49;10.10;;;4.60;;
51238;SDS011;38154;47.548;18.828;2022-07-29T03:01:21;7.70;;;4.15;;
51238;SDS011;38154;47.548;18.828;2022-07-29T03:03:51;5.22;;;4.43;;
51238;SDS011;38154;47.548;18.828;2022-07-29T03:06:19;8.57;;;4.25;;
51238;SDS011;38154;47.548;18.828;2022-07-29T03:08:47;7.97;;;5.00;;
51238;SDS011;38154;47.548;18.828;2022-07-29T03:11:14;8.38;;;5.00;;
51238;SDS011;38154;47.548;18.828;2022-07-29T03:13:42;6.20;;;4.53;;
51238;SDS011;38154;47.548;18.828;2022-07-29T03:16:10;7.47;;;4.55;;
51238;SDS011;38154;47.548;18.828;2022-07-29T03:18:38;7.35;;;4.50;;
51238;SDS011;38154;47.548;18.828;2022-07-29T03:23:30;5.93;;;4.32;;
51238;SDS011;38154;47.548;18.828;2022-07-29T03:25:56;7.80;;;4.87;;
51238;SDS011;38154;47.548;18.828;2022-07-29T03:28:22;9.43;;;5.22;;
51238;SDS011;38154;47.548;18.828;2022-07-29T03:30:49;5.70;;;4.35;;
51238;SDS011;38154;47.548;18.828;2022-07-29T03:33:15;7.93;;;4.37;;
51238;SDS011;38154;47.548;18.828;2022-07-29T03:35:41;6.82;;;4.45;;
51238;SDS011;38154;47.548;18.828;2022-07-29T03:38:07;4.72;;;4.20;;
51238;SDS011;38154;47.548;18.828;2022-07-29T03:40:35;8.55;;;4.65;;
51238;SDS011;38154;47.548;18.828;2022-07-29T03:43:06;4.90;;;4.12;;
51238;SDS011;38154;47.548;18.828;2022-07-29T03:45:34;5.28;;;4.43;;
51238;SDS011;38154;47.548;18.828;2022-07-29T03:48:02;8.65;;;4.20;;
51238;SDS011;38154;47.548;18.828;2022-07-29T03:50:35;9.02;;;4.30;;
51238;SDS011;38154;47.548;18.828;2022-07-29T03:53:01;6.55;;;4.68;;
51238;SDS011;38154;47.548;18.828;2022-07-29T03:55:28;6.37;;;3.62;;
51238;SDS011;38154;47.548;18.828;2022-07-29T03:57:57;5.97;;;4.43;;
51238;SDS011;38154;47.548;18.828;2022-07-29T04:00:26;8.00;;;4.72;;
51238;SDS011;38154;47.548;18.828;2022-07-29T04:02:52;7.50;;;4.50;;
51238;SDS011;38154;47.548;18.828;2022-07-29T04:05:18;6.85;;;4.70;;
51238;SDS011;38154;47.548;18.828;2022-07-29T04:07:44;10.30;;;4.22;;
51238;SDS011;38154;47.548;18.828;2022-07-29T04:10:11;8.93;;;4.85;;
51238;SDS011;38154;47.548;18.828;2022-07-29T04:12:37;6.00;;;4.32;;
51238;SDS011;38154;47.548;18.828;2022-07-29T04:15:03;6.03;;;4.22;;
51238;SDS011;38154;47.548;18.828;2022-07-29T04:17:30;6.97;;;4.00;;
51238;SDS011;38154;47.548;18.828;2022-07-29T04:19:55;8.60;;;4.93;;
51238;SDS011;38154;47.548;18.828;2022-07-29T04:22:21;6.55;;;4.43;;
51238;SDS011;38154;47.548;18.828;2022-07-29T04:24:47;8.82;;;4.18;;
51238;SDS011;38154;47.548;18.828;2022-07-29T04:27:13;7.93;;;5.10;;
51238;SDS011;38154;47.548;18.828;2022-07-29T04:29:39;12.02;;;4.53;;
51238;SDS011;38154;47.548;18.828;2022-07-29T04:32:05;7.32;;;4.62;;
51238;SDS011;38154;47.548;18.828;2022-07-29T04:34:31;6.62;;;4.53;;
51238;SDS011;38154;47.548;18.828;2022-07-29T04:36:57;6.15;;;4.10;;
51238;SDS011;38154;47.548;18.828;2022-07-29T04:39:23;7.07;;;4.28;;
51238;SDS011;38154;47.548;18.828;2022-07-29T04:41:49;6.72;;;4.45;;
51238;SDS011;38154;47.548;18.828;2022-07-29T04:44:16;7.85;;;4.60;;
51238;SDS011;38154;47.548;18.828;2022-07-29T04:46:41;8.45;;;4.22;;
51238;SDS011;38154;47.548;18.828;2022-07-29T04:49:07;9.02;;;4.15;;
51238;SDS011;38154;47.548;18.828;2022-07-29T04:51:33;4.12;;;3.70;;
51238;SDS011;38154;47.548;18.828;2022-07-29T04:56:25;5.07;;;4.15;;
51238;SDS011;38154;47.548;18.828;2022-07-29T04:58:51;6.20;;;4.20;;
51238;SDS011;38154;47.548;18.828;2022-07-29T05:01:17;7.80;;;4.20;;
51238;SDS011;38154;47.548;18.828;2022-07-29T05:03:43;11.70;;;4.65;;
51238;SDS011;38154;47.548;18.828;2022-07-29T05:06:10;5.95;;;3.92;;
51238;SDS011;38154;47.548;18.828;2022-07-29T05:11:02;8.15;;;4.43;;
51238;SDS011;38154;47.548;18.828;2022-07-29T05:13:29;10.35;;;4.70;;
51238;SDS011;38154;47.548;18.828;2022-07-29T05:18:21;5.12;;;3.75;;
51238;SDS011;38154;47.548;18.828;2022-07-29T05:20:46;6.45;;;4.22;;
51238;SDS011;38154;47.548;18.828;2022-07-29T05:23:12;4.70;;;3.85;;
51238;SDS011;38154;47.548;18.828;2022-07-29T05:25:38;4.47;;;3.60;;
51238;SDS011;38154;47.548;18.828;2022-07-29T05:28:04;8.10;;;4.20;;
51238;SDS011;38154;47.548;18.828;2022-07-29T05:30:30;4.70;;;3.83;;
51238;SDS011;38154;47.548;18.828;2022-07-29T05:32:56;7.60;;;3.90;;
51238;SDS011;38154;47.548;18.828;2022-07-29T05:35:22;5.32;;;4.12;;
51238;SDS011;38154;47.548;18.828;2022-07-29T05:37:47;4.65;;;4.00;;
51238;SDS011;38154;47.548;18.828;2022-07-29T05:40:13;5.25;;;4.30;;
51238;SDS011;38154;47.548;18.828;2022-07-29T05:42:39;5.50;;;4.05;;
51238;SDS011;38154;47.548;18.828;2022-07-29T05:45:05;8.30;;;4.60;;
51238;SDS011;38154;47.548;18.828;2022-07-29T05:47:31;4.40;;;4.00;;
51238;SDS011;38154;47.548;18.828;2022-07-29T05:49:57;6.85;;;4.50;;
51238;SDS011;38154;47.548;18.828;2022-07-29T05:52:23;7.10;;;4.18;;
51238;SDS011;38154;47.548;18.828;2022-07-29T05:54:49;4.70;;;3.97;;
51238;SDS011;38154;47.548;18.828;2022-07-29T05:57:15;7.50;;;4.53;;
51238;SDS011;38154;47.548;18.828;2022-07-29T05:59:42;4.85;;;3.83;;
51238;SDS011;38154;47.548;18.828;2022-07-29T06:02:08;5.57;;;4.05;;
51238;SDS011;38154;47.548;18.828;2022-07-29T06:04:34;3.90;;;3.50;;
51238;SDS011;38154;47.548;18.828;2022-07-29T06:07:00;6.72;;;3.47;;
51238;SDS011;38154;47.548;18.828;2022-07-29T06:09:27;7.18;;;4.05;;
51238;SDS011;38154;47.548;18.828;2022-07-29T06:11:56;6.18;;;4.00;;
51238;SDS011;38154;47.548;18.828;2022-07-29T06:14:23;8.77;;;4.05;;
51238;SDS011;38154;47.548;18.828;2022-07-29T06:16:49;4.55;;;3.47;;
51238;SDS011;38154;47.548;18.828;2022-07-29T06:21:44;5.80;;;3.65;;
51238;SDS011;38154;47.548;18.828;2022-07-29T06:24:11;6.15;;;3.55;;
51238;SDS011;38154;47.548;18.828;2022-07-29T06:26:38;7.20;;;3.42;;
51238;SDS011;38154;47.548;18.828;2022-07-29T06:29:05;6.30;;;4.03;;
51238;SDS011;38154;47.548;18.828;2022-07-29T06:31:32;12.60;;;3.70;;
51238;SDS011;38154;47.548;18.828;2022-07-29T06:33:57;6.12;;;3.70;;
51238;SDS011;38154;47.548;18.828;2022-07-29T06:36:24;4.78;;;3.28;;
51238;SDS011;38154;47.548;18.828;2022-07-29T06:38:50;4.65;;;3.50;;
51238;SDS011;38154;47.548;18.828;2022-07-29T06:41:16;7.93;;;3.20;;
51238;SDS011;38154;47.548;18.828;2022-07-29T06:43:42;6.85;;;3.55;;
51238;SDS011;38154;47.548;18.828;2022-07-29T06:46:10;8.20;;;3.08;;
51238;SDS011;38154;47.548;18.828;2022-07-29T06:48:38;6.07;;;3.22;;
51238;SDS011;38154;47.548;18.828;2022-07-29T06:51:06;5.43;;;3.28;;
51238;SDS011;38154;47.548;18.828;2022-07-29T06:53:32;6.65;;;3.42;;
51238;SDS011;38154;47.548;18.828;2022-07-29T06:55:59;4.47;;;3.50;;
51238;SDS011;38154;47.548;18.828;2022-07-29T06:58:26;3.55;;;3.20;;
51238;SDS011;38154;47.548;18.828;2022-07-29T07:00:53;6.82;;;3.10;;
51238;SDS011;38154;47.548;18.828;2022-07-29T07:03:19;3.70;;;2.72;;
51238;SDS011;38154;47.548;18.828;2022-07-29T07:05:45;6.35;;;3.37;;
51238;SDS011;38154;47.548;18.828;2022-07-29T07:08:12;3.22;;;2.85;;
51238;SDS011;38154;47.548;18.828;2022-07-29T07:10:38;4.40;;;2.92;;
51238;SDS011;38154;47.548;18.828;2022-07-29T07:13:05;3.87;;;3.37;;
51238;SDS011;38154;47.548;18.828;2022-07-29T07:15:31;3.10;;;2.83;;
51238;SDS011;38154;47.548;18.828;2022-07-29T07:17:57;6.12;;;2.65;;
51238;SDS011;38154;47.548;18.828;2022-07-29T07:20:23;3.87;;;2.85;;
51238;SDS011;38154;47.548;18.828;2022-07-29T07:22:50;6.35;;;3.05;;
51238;SDS011;38154;47.548;18.828;2022-07-29T07:25:16;7.82;;;3.20;;
51238;SDS011;38154;47.548;18.828;2022-07-29T07:27:43;6.05;;;2.85;;
51238;SDS011;38154;47.548;18.828;2022-07-29T07:30:12;3.62;;;2.83;;
51238;SDS011;38154;47.548;18.828;2022-07-29T07:32:38;3.58;;;3.10;;
51238;SDS011;38154;47.548;18.828;2022-07-29T07:35:06;6.18;;;3.17;;
51238;SDS011;38154;47.548;18.828;2022-07-29T07:37:33;7.68;;;3.05;;
51238;SDS011;38154;47.548;18.828;2022-07-29T07:40:00;5.78;;;2.80;;
51238;SDS011;38154;47.548;18.828;2022-07-29T07:42:26;5.18;;;3.20;;
51238;SDS011;38154;47.548;18.828;2022-07-29T07:44:52;4.93;;;2.80;;
51238;SDS011;38154;47.548;18.828;2022-07-29T07:47:18;3.85;;;2.70;;
51238;SDS011;38154;47.548;18.828;2022-07-29T07:49:52;4.28;;;2.72;;
51238;SDS011;38154;47.548;18.828;2022-07-29T07:52:19;4.50;;;2.70;;
51238;SDS011;38154;47.548;18.828;2022-07-29T07:54:46;2.92;;;2.60;;
51238;SDS011;38154;47.548;18.828;2022-07-29T07:57:13;6.55;;;2.90;;
51238;SDS011;38154;47.548;18.828;2022-07-29T07:59:39;4.87;;;2.95;;
51238;SDS011;38154;47.548;18.828;2022-07-29T08:02:09;9.88;;;2.80;;
51238;SDS011;38154;47.548;18.828;2022-07-29T08:04:35;3.42;;;2.40;;
51238;SDS011;38154;47.548;18.828;2022-07-29T08:07:01;3.87;;;2.35;;
51238;SDS011;38154;47.548;18.828;2022-07-29T08:09:28;2.72;;;2.42;;
51238;SDS011;38154;47.548;18.828;2022-07-29T08:11:54;4.80;;;2.70;;
51238;SDS011;38154;47.548;18.828;2022-07-29T08:14:21;5.15;;;2.80;;
51238;SDS011;38154;47.548;18.828;2022-07-29T08:16:47;3.25;;;2.50;;
51238;SDS011;38154;47.548;18.828;2022-07-29T08:19:13;3.78;;;2.60;;
51238;SDS011;38154;47.548;18.828;2022-07-29T08:21:39;4.78;;;3.12;;
51238;SDS011;38154;47.548;18.828;2022-07-29T08:24:05;4.82;;;2.50;;
51238;SDS011;38154;47.548;18.828;2022-07-29T08:26:49;3.75;;;2.30;;
51238;SDS011;38154;47.548;18.828;2022-07-29T08:29:15;6.05;;;2.55;;
51238;SDS011;38154;47.548;18.828;2022-07-29T08:31:41;5.65;;;2.53;;
51238;SDS011;38154;47.548;18.828;2022-07-29T08:34:07;4.60;;;3.08;;
51238;SDS011;38154;47.548;18.828;2022-07-29T08:36:34;5.47;;;2.70;;
51238;SDS011;38154;47.548;18.828;2022-07-29T08:39:00;6.37;;;2.83;;
51238;SDS011;38154;47.548;18.828;2022-07-29T08:41:28;4.93;;;2.90;;
51238;SDS011;38154;47.548;18.828;2022-07-29T08:43:54;6.25;;;2.72;;
51238;SDS011;38154;47.548;18.828;2022-07-29T08:46:20;8.10;;;2.83;;
51238;SDS011;38154;47.548;18.828;2022-07-29T08:48:47;11.70;;;3.17;;
51238;SDS011;38154;47.548;18.828;2022-07-29T08:51:14;6.62;;;2.75;;
51238;SDS011;38154;47.548;18.828;2022-07-29T08:53:42;5.50;;;2.80;;
51238;SDS011;38154;47.548;18.828;2022-07-29T08:56:12;3.90;;;2.90;;
51238;SDS011;38154;47.548;18.828;2022-07-29T08:58:43;3.25;;;2.70;;
51238;SDS011;38154;47.548;18.828;2022-07-29T09:01:10;7.60;;;3.15;;
51238;SDS011;38154;47.548;18.828;2022-07-29T09:03:37;5.72;;;3.30;;
51238;SDS011;38154;47.548;18.828;2022-07-29T09:06:05;8.45;;;3.05;;
51238;SDS011;38154;47.548;18.828;2022-07-29T09:08:31;14.68;;;3.33;;
51238;SDS011;38154;47.548;18.828;2022-07-29T09:10:58;12.20;;;3.17;;
51238;SDS011;38154;47.548;18.828;2022-07-29T09:13:25;5.53;;;2.90;;
51238;SDS011;38154;47.548;18.828;2022-07-29T09:15:51;12.27;;;3.30;;
51238;SDS011;38154;47.548;18.828;2022-07-29T09:21:02;3.40;;;1.92;;
51238;SDS011;38154;47.548;18.828;2022-07-29T09:24:01;3.17;;;2.12;;
51238;SDS011;38154;47.548;18.828;2022-07-29T09:26:44;5.62;;;2.12;;
51238;SDS011;38154;47.548;18.828;2022-07-29T09:29:15;3.80;;;2.65;;
51238;SDS011;38154;47.548;18.828;2022-07-29T09:31:44;6.25;;;3.42;;
51238;SDS011;38154;47.548;18.828;2022-07-29T09:34:12;3.42;;;2.22;;
51238;SDS011;38154;47.548;18.828;2022-07-29T09:36:40;10.30;;;2.30;;
51238;SDS011;38154;47.548;18.828;2022-07-29T09:39:07;6.00;;;2.40;;
51238;SDS011;38154;47.548;18.828;2022-07-29T09:41:43;5.45;;;2.47;;
51238;SDS011;38154;47.548;18.828;2022-07-29T09:44:14;4.80;;;2.22;;
51238;SDS011;38154;47.548;18.828;2022-07-29T09:46:52;4.40;;;2.25;;
51238;SDS011;38154;47.548;18.828;2022-07-29T09:49:28;3.60;;;2.12;;
51238;SDS011;38154;47.548;18.828;2022-07-29T09:52:00;5.68;;;2.42;;
51238;SDS011;38154;47.548;18.828;2022-07-29T09:54:28;7.40;;;2.47;;
51238;SDS011;38154;47.548;18.828;2022-07-29T09:56:59;8.98;;;2.50;;
51238;SDS011;38154;47.548;18.828;2022-07-29T09:59:25;2.97;;;2.17;;
51238;SDS011;38154;47.548;18.828;2022-07-29T10:01:52;3.85;;;2.22;;
51238;SDS011;38154;47.548;18.828;2022-07-29T10:04:18;5.55;;;3.12;;
51238;SDS011;38154;47.548;18.828;2022-07-29T10:07:00;10.52;;;2.62;;
51238;SDS011;38154;47.548;18.828;2022-07-29T10:09:28;5.03;;;2.40;;
51238;SDS011;38154;47.548;18.828;2022-07-29T10:12:07;3.30;;;2.10;;
51238;SDS011;38154;47.548;18.828;2022-07-29T10:14:39;5.30;;;2.20;;
51238;SDS011;38154;47.548;18.828;2022-07-29T10:17:06;10.50;;;2.55;;
51238;SDS011;38154;47.548;18.828;2022-07-29T10:19:33;3.12;;;2.20;;
51238;SDS011;38154;47.548;18.828;2022-07-29T10:22:01;3.37;;;2.60;;
51238;SDS011;38154;47.548;18.828;2022-07-29T10:24:29;3.70;;;2.55;;
51238;SDS011;38154;47.548;18.828;2022-07-29T10:26:57;8.63;;;2.62;;
51238;SDS011;38154;47.548;18.828;2022-07-29T10:29:24;6.82;;;2.80;;
51238;SDS011;38154;47.548;18.828;2022-07-29T10:31:54;6.50;;;2.40;;
51238;SDS011;38154;47.548;18.828;2022-07-29T10:37:33;3.70;;;2.15;;
51238;SDS011;38154;47.548;18.828;2022-07-29T10:43:08;3.37;;;2.70;;
51238;SDS011;38154;47.548;18.828;2022-07-29T10:45:44;3.70;;;2.78;;
51238;SDS011;38154;47.548;18.828;2022-07-29T10:48:12;7.32;;;2.85;;
51238;SDS011;38154;47.548;18.828;2022-07-29T10:53:50;5.65;;;2.42;;
51238;SDS011;38154;47.548;18.828;2022-07-29T10:56:30;3.90;;;2.62;;
51238;SDS011;38154;47.548;18.828;2022-07-29T11:09:16;4.05;;;2.25;;
51238;SDS011;38154;47.548;18.828;2022-07-29T11:11:47;3.80;;;2.67;;
51238;SDS011;38154;47.548;18.828;2022-07-29T11:14:14;5.03;;;3.08;;
51238;SDS011;38154;47.548;18.828;2022-07-29T11:16:57;9.60;;;3.10;;
51238;SDS011;38154;47.548;18.828;2022-07-29T11:19:25;3.72;;;3.25;;
51238;SDS011;38154;47.548;18.828;2022-07-29T11:21:51;7.85;;;3.47;;
51238;SDS011;38154;47.548;18.828;2022-07-29T11:24:19;3.62;;;2.85;;
51238;SDS011;38154;47.548;18.828;2022-07-29T11:27:05;6.32;;;2.75;;
51238;SDS011;38154;47.548;18.828;2022-07-29T11:29:31;7.57;;;2.85;;
51238;SDS011;38154;47.548;18.828;2022-07-29T11:32:08;4.55;;;2.78;;
51238;SDS011;38154;47.548;18.828;2022-07-29T11:34:35;5.43;;;2.72;;
51238;SDS011;38154;47.548;18.828;2022-07-29T11:44:53;3.30;;;2.53;;
51238;SDS011;38154;47.548;18.828;2022-07-29T11:47:33;5.67;;;2.70;;
51238;SDS011;38154;47.548;18.828;2022-07-29T11:50:02;3.90;;;2.87;;
51238;SDS011;38154;47.548;18.828;2022-07-29T11:52:40;4.03;;;2.70;;
51238;SDS011;38154;47.548;18.828;2022-07-29T11:55:15;6.70;;;2.53;;
51238;SDS011;38154;47.548;18.828;2022-07-29T11:57:46;5.03;;;2.55;;
51238;SDS011;38154;47.548;18.828;2022-07-29T12:00:39;4.87;;;2.77;;
51238;SDS011;38154;47.548;18.828;2022-07-29T12:03:06;3.75;;;2.50;;
51238;SDS011;38154;47.548;18.828;2022-07-29T12:05:35;3.28;;;2.60;;
51238;SDS011;38154;47.548;18.828;2022-07-29T12:08:06;6.10;;;2.40;;
51238;SDS011;38154;47.548;18.828;2022-07-29T12:10:37;4.47;;;2.47;;
51238;SDS011;38154;47.548;18.828;2022-07-29T12:13:03;9.43;;;2.50;;
51238;SDS011;38154;47.548;18.828;2022-07-29T12:15:29;5.78;;;2.60;;
51238;SDS011;38154;47.548;18.828;2022-07-29T12:17:55;6.47;;;2.67;;
51238;SDS011;38154;47.548;18.828;2022-07-29T12:20:22;4.30;;;2.90;;
51238;SDS011;38154;47.548;18.828;2022-07-29T12:22:58;5.15;;;2.40;;
51238;SDS011;38154;47.548;18.828;2022-07-29T12:25:32;7.07;;;2.70;;
51238;SDS011;38154;47.548;18.828;2022-07-29T12:28:00;2.67;;;2.40;;
51238;SDS011;38154;47.548;18.828;2022-07-29T12:30:35;2.70;;;2.28;;
51238;SDS011;38154;47.548;18.828;2022-07-29T12:33:01;2.62;;;2.28;;
51238;SDS011;38154;47.548;18.828;2022-07-29T12:35:27;4.25;;;3.00;;
51238;SDS011;38154;47.548;18.828;2022-07-29T12:37:53;6.50;;;2.60;;
51238;SDS011;38154;47.548;18.828;2022-07-29T12:40:20;10.73;;;3.03;;
51238;SDS011;38154;47.548;18.828;2022-07-29T12:43:05;6.15;;;2.90;;
51238;SDS011;38154;47.548;18.828;2022-07-29T12:47:58;7.20;;;2.60;;
51238;SDS011;38154;47.548;18.828;2022-07-29T12:50:24;3.00;;;2.60;;
51238;SDS011;38154;47.548;18.828;2022-07-29T12:52:50;2.35;;;2.15;;
51238;SDS011;38154;47.548;18.828;2022-07-29T12:55:37;3.10;;;2.70;;
51238;SDS011;38154;47.548;18.828;2022-07-29T12:58:30;5.65;;;2.42;;
51238;SDS011;38154;47.548;18.828;2022-07-29T13:01:10;3.15;;;2.53;;
51238;SDS011;38154;47.548;18.828;2022-07-29T13:03:48;6.28;;;2.58;;
51238;SDS011;38154;47.548;18.828;2022-07-29T13:08:59;3.55;;;2.92;;
51238;SDS011;38154;47.548;18.828;2022-07-29T13:11:30;5.10;;;2.70;;
51238;SDS011;38154;47.548;18.828;2022-07-29T13:14:01;5.85;;;2.60;;
51238;SDS011;38154;47.548;18.828;2022-07-29T13:16:27;4.72;;;2.70;;
51238;SDS011;38154;47.548;18.828;2022-07-29T13:19:09;5.03;;;2.55;;
51238;SDS011;38154;47.548;18.828;2022-07-29T13:21:37;8.95;;;3.00;;
51238;SDS011;38154;47.548;18.828;2022-07-29T13:24:05;5.93;;;2.50;;
51238;SDS011;38154;47.548;18.828;2022-07-29T13:26:31;95.87;;;7.07;;
51238;SDS011;38154;47.548;18.828;2022-07-29T13:28:57;5.32;;;2.62;;
51238;SDS011;38154;47.548;18.828;2022-07-29T13:31:23;2.83;;;2.62;;
51238;SDS011;38154;47.548;18.828;2022-07-29T13:33:49;4.45;;;2.85;;
51238;SDS011;38154;47.548;18.828;2022-07-29T13:36:15;4.00;;;2.42;;
51238;SDS011;38154;47.548;18.828;2022-07-29T13:38:41;5.30;;;2.60;;
51238;SDS011;38154;47.548;18.828;2022-07-29T13:41:07;3.95;;;2.60;;
51238;SDS011;38154;47.548;18.828;2022-07-29T13:43:33;6.82;;;2.60;;
51238;SDS011;38154;47.548;18.828;2022-07-29T13:45:59;3.97;;;2.70;;
51238;SDS011;38154;47.548;18.828;2022-07-29T13:48:24;4.32;;;2.80;;
51238;SDS011;38154;47.548;18.828;2022-07-29T13:50:50;4.25;;;2.75;;
51238;SDS011;38154;47.548;18.828;2022-07-29T13:53:16;6.22;;;2.87;;
51238;SDS011;38154;47.548;18.828;2022-07-29T13:55:42;6.70;;;2.90;;
51238;SDS011;38154;47.548;18.828;2022-07-29T13:58:08;5.25;;;2.50;;
51238;SDS011;38154;47.548;18.828;2022-07-29T14:00:34;8.95;;;3.92;;
51238;SDS011;38154;47.548;18.828;2022-07-29T14:03:00;10.70;;;2.87;;
51238;SDS011;38154;47.548;18.828;2022-07-29T14:05:25;6.85;;;2.92;;
51238;SDS011;38154;47.548;18.828;2022-07-29T14:07:51;2.90;;;2.70;;
51238;SDS011;38154;47.548;18.828;2022-07-29T14:10:17;4.12;;;2.72;;
51238;SDS011;38154;47.548;18.828;2022-07-29T14:12:43;8.05;;;3.08;;
51238;SDS011;38154;47.548;18.828;2022-07-29T14:15:09;4.18;;;2.97;;
51238;SDS011;38154;47.548;18.828;2022-07-29T14:17:35;3.90;;;2.78;;
51238;SDS011;38154;47.548;18.828;2022-07-29T14:20:00;3.80;;;2.53;;
51238;SDS011;38154;47.548;18.828;2022-07-29T14:22:26;4.97;;;2.65;;
51238;SDS011;38154;47.548;18.828;2022-07-29T14:24:52;5.12;;;2.72;;
51238;SDS011;38154;47.548;18.828;2022-07-29T14:27:18;4.40;;;2.47;;
51238;SDS011;38154;47.548;18.828;2022-07-29T14:29:44;3.45;;;2.35;;
51238;SDS011;38154;47.548;18.828;2022-07-29T14:32:10;5.25;;;2.90;;
51238;SDS011;38154;47.548;18.828;2022-07-29T14:34:36;5.78;;;3.08;;
51238;SDS011;38154;47.548;18.828;2022-07-29T14:37:03;5.50;;;3.00;;
51238;SDS011;38154;47.548;18.828;2022-07-29T14:39:34;4.12;;;2.58;;
51238;SDS011;38154;47.548;18.828;2022-07-29T14:42:04;5.30;;;2.35;;
51238;SDS011;38154;47.548;18.828;2022-07-29T14:44:29;3.78;;;2.58;;
51238;SDS011;38154;47.548;18.828;2022-07-29T14:46:57;9.70;;;2.80;;
51238;SDS011;38154;47.548;18.828;2022-07-29T14:49:25;7.62;;;2.90;;
51238;SDS011;38154;47.548;18.828;2022-07-29T14:51:51;4.60;;;2.75;;
51238;SDS011;38154;47.548;18.828;2022-07-29T14:54:17;7.15;;;2.70;;
51238;SDS011;38154;47.548;18.828;2022-07-29T14:56:43;3.97;;;2.60;;
51238;SDS011;38154;47.548;18.828;2022-07-29T14:59:09;3.25;;;2.50;;
51238;SDS011;38154;47.548;18.828;2022-07-29T15:01:35;9.40;;;2.97;;
51238;SDS011;38154;47.548;18.828;2022-07-29T15:04:01;3.45;;;2.62;;
51238;SDS011;38154;47.548;18.828;2022-07-29T15:06:27;5.28;;;3.20;;
51238;SDS011;38154;47.548;18.828;2022-07-29T15:08:53;3.17;;;2.70;;
51238;SDS011;38154;47.548;18.828;2022-07-29T15:11:19;4.55;;;2.75;;
51238;SDS011;38154;47.548;18.828;2022-07-29T15:13:45;8.07;;;2.90;;
51238;SDS011;38154;47.548;18.828;2022-07-29T15:16:11;3.08;;;2.55;;
51238;SDS011;38154;47.548;18.828;2022-07-29T15:18:37;5.25;;;2.87;;
51238;SDS011;38154;47.548;18.828;2022-07-29T15:21:04;4.53;;;2.80;;
51238;SDS011;38154;47.548;18.828;2022-07-29T15:23:32;4.22;;;2.90;;
51238;SDS011;38154;47.548;18.828;2022-07-29T15:25:59;3.90;;;2.78;;
51238;SDS011;38154;47.548;18.828;2022-07-29T15:28:24;3.83;;;2.58;;
51238;SDS011;38154;47.548;18.828;2022-07-29T15:30:50;5.57;;;2.95;;
51238;SDS011;38154;47.548;18.828;2022-07-29T15:33:16;5.18;;;2.85;;
51238;SDS011;38154;47.548;18.828;2022-07-29T15:35:43;4.47;;;2.83;;
51238;SDS011;38154;47.548;18.828;2022-07-29T15:38:09;5.78;;;3.17;;
51238;SDS011;38154;47.548;18.828;2022-07-29T15:40:36;4.87;;;3.05;;
51238;SDS011;38154;47.548;18.828;2022-07-29T15:43:03;8.55;;;3.40;;
51238;SDS011;38154;47.548;18.828;2022-07-29T15:45:37;4.10;;;2.90;;
51238;SDS011;38154;47.548;18.828;2022-07-29T15:48:05;3.35;;;3.05;;
51238;SDS011;38154;47.548;18.828;2022-07-29T15:50:33;5.95;;;2.97;;